createdAt,value
2023-07-20T00:00:25.854Z,1003.41
2023-07-20T00:03:25.860Z,1003.35
2023-07-20T00:06:25.849Z,1003.39
2023-07-20T00:09:25.849Z,1003.42
2023-07-20T00:12:25.831Z,1003.43
2023-07-20T00:15:25.838Z,1003.43
2023-07-20T00:18:25.847Z,1003.44
2023-07-20T00:21:25.836Z,1003.43
2023-07-20T00:24:25.840Z,1003.46
2023-07-20T00:27:25.838Z,1003.43
2023-07-20T00:30:25.858Z,1003.4
2023-07-20T00:33:25.834Z,1003.33
2023-07-20T00:36:25.823Z,1003.3
2023-07-20T00:39:25.911Z,1003.33
2023-07-20T00:42:25.824Z,1003.34
2023-07-20T00:45:25.855Z,1003.32
2023-07-20T00:48:25.841Z,1003.33
2023-07-20T00:51:25.824Z,1003.35
2023-07-20T00:54:25.822Z,1003.38
2023-07-20T00:57:25.818Z,1003.4
2023-07-20T01:00:25.827Z,1003.39
2023-07-20T01:03:25.909Z,1003.42
2023-07-20T01:06:25.880Z,1003.38
2023-07-20T01:09:25.814Z,1003.41
2023-07-20T01:12:25.817Z,1003.39
2023-07-20T01:15:25.805Z,1003.43
2023-07-20T01:18:25.804Z,1003.42
2023-07-20T01:21:25.809Z,1003.4
2023-07-20T01:24:25.800Z,1003.43
2023-07-20T01:27:25.810Z,1003.41
2023-07-20T01:30:25.813Z,1003.39
2023-07-20T01:33:25.814Z,1003.44
2023-07-20T01:36:25.884Z,1003.47
2023-07-20T01:39:25.836Z,1003.42
2023-07-20T01:42:25.805Z,1003.42
2023-07-20T01:45:25.815Z,1003.46
2023-07-20T01:48:25.821Z,1003.48
2023-07-20T01:51:25.811Z,1003.48
2023-07-20T01:54:25.808Z,1003.48
2023-07-20T01:57:25.808Z,1003.49
2023-07-20T02:00:25.813Z,1003.43
2023-07-20T02:03:25.803Z,1003.46
2023-07-20T02:06:26.104Z,1003.47
2023-07-20T02:09:25.793Z,1003.46
2023-07-20T02:12:25.818Z,1003.5
2023-07-20T02:15:25.796Z,1003.5
2023-07-20T02:18:25.803Z,1003.52
2023-07-20T02:21:25.806Z,1003.52
2023-07-20T02:24:25.800Z,1003.52
2023-07-20T02:27:25.803Z,1003.52
2023-07-20T02:30:25.794Z,1003.45
2023-07-20T02:33:25.799Z,1003.42
2023-07-20T02:36:25.868Z,1003.43
2023-07-20T02:39:25.794Z,1003.47
2023-07-20T02:42:25.798Z,1003.49
2023-07-20T02:45:25.790Z,1003.5
2023-07-20T02:48:25.794Z,1003.48
2023-07-20T02:51:25.797Z,1003.5
2023-07-20T02:54:25.784Z,1003.56
2023-07-20T02:57:25.791Z,1003.55
2023-07-20T03:00:25.795Z,1003.53
2023-07-20T03:03:25.923Z,1003.49
2023-07-20T03:06:26.004Z,1003.57
2023-07-20T03:09:25.795Z,1003.55
2023-07-20T03:12:25.789Z,1003.61
2023-07-20T03:15:25.785Z,1003.58
2023-07-20T03:18:25.790Z,1003.57
2023-07-20T03:21:30.702Z,1003.57
2023-07-20T03:24:25.792Z,1003.57
2023-07-20T03:27:25.769Z,1003.57
2023-07-20T03:30:25.778Z,1003.54
2023-07-20T03:33:25.776Z,1003.58
2023-07-20T03:36:25.864Z,1003.61
2023-07-20T03:39:25.810Z,1003.68
2023-07-20T03:42:25.763Z,1003.61
2023-07-20T03:45:25.766Z,1003.61
2023-07-20T03:48:25.771Z,1003.61
2023-07-20T03:51:25.766Z,1003.6
2023-07-20T03:54:25.778Z,1003.63
2023-07-20T03:57:25.801Z,1003.6
2023-07-20T04:00:25.756Z,1003.65
2023-07-20T04:03:25.892Z,1003.68
2023-07-20T04:06:26.008Z,1003.65
2023-07-20T04:09:25.765Z,1003.69
2023-07-20T04:12:25.763Z,1003.66
2023-07-20T04:15:25.766Z,1003.74
2023-07-20T04:18:25.757Z,1003.73
2023-07-20T04:21:25.767Z,1003.7
2023-07-20T04:24:25.758Z,1003.72
2023-07-20T04:27:25.757Z,1003.74
2023-07-20T04:30:25.857Z,1003.75
2023-07-20T04:33:25.760Z,1003.75
2023-07-20T04:36:26.156Z,1003.76
2023-07-20T04:39:31.287Z,1003.74
2023-07-20T04:42:25.753Z,1003.77
2023-07-20T04:45:25.747Z,1003.81
2023-07-20T04:48:25.751Z,1003.88
2023-07-20T04:51:25.735Z,1003.91
2023-07-20T04:54:25.830Z,1003.89
2023-07-20T04:57:26.721Z,1003.87
2023-07-20T05:00:26.461Z,1003.89
2023-07-20T05:03:26.597Z,1003.93
2023-07-20T05:06:26.617Z,1003.94
2023-07-20T05:09:26.460Z,1003.96
2023-07-20T05:12:26.464Z,1003.96
2023-07-20T05:15:26.447Z,1003.97
2023-07-20T05:18:26.416Z,1004.03
2023-07-20T05:21:26.473Z,1004.06
2023-07-20T05:24:26.456Z,1004.09
2023-07-20T05:27:26.452Z,1004.07
2023-07-20T05:30:26.452Z,1004.03
2023-07-20T05:33:26.458Z,1004.01
2023-07-20T05:36:26.431Z,1004.03
2023-07-20T05:39:26.497Z,1004.09
2023-07-20T05:42:26.451Z,1004.04
2023-07-20T05:45:26.429Z,1004.04
2023-07-20T05:48:26.436Z,1004.09
2023-07-20T05:51:26.444Z,1004.12
2023-07-20T05:54:26.445Z,1004.1
2023-07-20T05:57:26.435Z,1004.12
2023-07-20T06:00:26.434Z,1004.16
2023-07-20T06:03:26.468Z,1004.17
2023-07-20T06:06:26.424Z,1004.23
2023-07-20T06:09:26.420Z,1004.22
2023-07-20T06:12:26.432Z,1004.25
2023-07-20T06:15:26.423Z,1004.28
2023-07-20T06:18:26.420Z,1004.32
2023-07-20T06:21:26.410Z,1004.32
2023-07-20T06:24:26.431Z,1004.4
2023-07-20T06:27:26.411Z,1004.38
2023-07-20T06:30:26.427Z,1004.39
2023-07-20T06:33:26.456Z,1004.37
2023-07-20T06:36:26.418Z,1004.39
2023-07-20T06:45:26.399Z,1004.46
2023-07-20T06:48:26.423Z,1004.47
2023-07-20T06:51:26.605Z,1004.42
2023-07-20T06:54:26.433Z,1004.46
2023-07-20T06:57:26.415Z,1004.41
2023-07-20T07:00:26.416Z,1004.45
2023-07-20T07:03:28.942Z,1004.49
2023-07-20T07:06:26.875Z,1004.53
2023-07-20T07:09:26.422Z,1004.55
2023-07-20T07:12:26.457Z,1004.53
2023-07-20T07:15:26.449Z,1004.57
2023-07-20T07:18:26.447Z,1004.54
2023-07-20T07:21:26.512Z,1004.52
2023-07-20T07:27:26.447Z,1004.53
2023-07-20T07:30:26.467Z,1004.56
2023-07-20T07:33:26.451Z,1004.53
2023-07-20T07:36:26.466Z,1004.54
2023-07-20T07:39:34.513Z,1004.57
2023-07-20T07:42:26.430Z,1004.57
2023-07-20T07:45:26.444Z,1004.58
2023-07-20T07:48:26.436Z,1004.58
2023-07-20T07:51:26.425Z,1004.6
2023-07-20T07:54:26.430Z,1004.59
2023-07-20T07:57:26.433Z,1004.56
2023-07-20T08:00:26.522Z,1004.54
2023-07-20T08:03:26.451Z,1004.64
2023-07-20T08:06:27.017Z,1004.59
2023-07-20T08:09:26.437Z,1004.56
2023-07-20T08:12:26.433Z,1004.59
2023-07-20T08:15:26.495Z,1004.54
2023-07-20T08:18:26.583Z,1004.56
2023-07-20T08:21:26.473Z,1004.56
2023-07-20T08:24:26.471Z,1004.56
2023-07-20T08:27:26.430Z,1004.58
2023-07-20T08:30:26.458Z,1004.6
2023-07-20T08:33:26.430Z,1004.62
2023-07-20T08:36:26.681Z,1004.59
2023-07-20T08:39:26.428Z,1004.55
2023-07-20T08:42:26.460Z,1004.52
2023-07-20T08:45:26.476Z,1004.55
2023-07-20T08:48:26.428Z,1004.54
2023-07-20T08:51:26.432Z,1004.59
2023-07-20T08:54:26.433Z,1004.63
2023-07-20T08:57:26.452Z,1004.66
2023-07-20T09:00:26.492Z,1004.62
2023-07-20T09:03:26.488Z,1004.65
2023-07-20T09:06:27.318Z,1004.63
2023-07-20T09:09:26.429Z,1004.58
2023-07-20T09:12:26.434Z,1004.55
2023-07-20T09:15:26.431Z,1004.58
2023-07-20T09:18:26.491Z,1004.56
2023-07-20T09:21:26.445Z,1004.58
2023-07-20T09:24:26.480Z,1004.55
2023-07-20T09:27:26.436Z,1004.57
2023-07-20T09:30:31.565Z,1004.65
2023-07-20T09:33:27.987Z,1004.64
2023-07-20T09:36:58.306Z,1004.6
2023-07-20T09:45:57.149Z,1004.5
2023-07-20T09:51:26.422Z,1004.58
2023-07-20T09:54:26.418Z,1004.55
2023-07-20T09:57:26.428Z,1004.53
2023-07-20T10:03:26.738Z,1004.54
2023-07-20T10:06:26.417Z,1004.47
2023-07-20T10:09:26.460Z,1004.51
2023-07-20T10:12:26.426Z,1004.52
2023-07-20T10:15:26.448Z,1004.47
2023-07-20T10:18:26.430Z,1004.43
2023-07-20T10:24:26.473Z,1004.4
2023-07-20T10:27:26.409Z,1004.32
2023-07-20T10:30:26.408Z,1004.27
2023-07-20T10:33:26.405Z,1004.28
2023-07-20T10:36:26.455Z,1004.25
2023-07-20T10:39:26.435Z,1004.17
2023-07-20T10:42:26.416Z,1004.15
2023-07-20T10:45:26.412Z,1004.13
2023-07-20T10:48:26.421Z,1004.08
2023-07-20T10:51:27.802Z,1004.13
2023-07-20T10:54:26.400Z,1004.04
2023-07-20T10:57:26.482Z,1004.05
2023-07-20T11:00:26.408Z,1004.06
2023-07-20T11:03:27.861Z,1004.02
2023-07-20T11:06:26.433Z,1004.05
2023-07-20T11:09:26.433Z,1003.96
2023-07-20T11:12:26.404Z,1003.98
2023-07-20T11:15:26.405Z,1003.98
2023-07-20T11:18:26.402Z,1004.01
2023-07-20T11:21:26.463Z,1003.97
2023-07-20T11:24:26.457Z,1003.89
2023-07-20T11:27:26.407Z,1003.85
2023-07-20T11:30:26.437Z,1003.84
2023-07-20T11:33:26.409Z,1003.85
2023-07-20T11:39:26.427Z,1003.77
2023-07-20T11:45:26.410Z,1003.75
2023-07-20T11:48:26.395Z,1003.73
2023-07-20T11:51:26.418Z,1003.78
2023-07-20T11:54:26.417Z,1003.82
2023-07-20T11:57:26.398Z,1003.81
2023-07-20T12:00:28.012Z,1003.79
2023-07-20T12:03:26.436Z,1003.71
2023-07-20T12:06:28.228Z,1003.7
2023-07-20T12:09:32.449Z,1003.65
2023-07-20T12:12:28.382Z,1003.58
2023-07-20T12:15:26.406Z,1003.6
2023-07-20T12:18:26.496Z,1003.54
2023-07-20T12:21:26.396Z,1003.58
2023-07-20T12:24:26.398Z,1003.55
2023-07-20T12:27:26.399Z,1003.53
2023-07-20T12:30:26.398Z,1003.5
2023-07-20T12:33:26.412Z,1003.5
2023-07-20T12:36:26.500Z,1003.43
2023-07-20T12:39:26.412Z,1003.43
2023-07-20T12:42:26.398Z,1003.44
2023-07-20T12:45:26.888Z,1003.4
2023-07-20T12:48:26.428Z,1003.37
2023-07-20T12:51:26.435Z,1003.35
2023-07-20T12:54:26.523Z,1003.32
2023-07-20T12:57:26.432Z,1003.28
2023-07-20T13:00:26.443Z,1003.26
2023-07-20T13:06:28.952Z,1003.19
2023-07-20T13:09:26.460Z,1003.2
2023-07-20T13:12:26.475Z,1003.13
2023-07-20T13:15:26.456Z,1003.11
2023-07-20T13:18:26.444Z,1003.07
2023-07-20T13:21:26.880Z,1003.04
2023-07-20T13:24:26.463Z,1002.96
2023-07-20T13:27:26.435Z,1002.87
2023-07-20T13:30:28.175Z,1002.83
2023-07-20T13:33:26.868Z,1002.84
2023-07-20T13:36:26.424Z,1002.86
2023-07-20T13:39:26.440Z,1002.8
2023-07-20T13:42:26.438Z,1002.79
2023-07-20T13:45:26.426Z,1002.76
2023-07-20T13:48:28.364Z,1002.76
2023-07-20T13:51:28.035Z,1002.82
2023-07-20T13:54:27.236Z,1002.87
2023-07-20T13:57:27.998Z,1002.82
2023-07-20T14:00:28.637Z,1002.84
2023-07-20T14:03:26.485Z,1002.75
2023-07-20T14:06:29.423Z,1002.71
2023-07-20T14:09:26.402Z,1002.69
2023-07-20T14:12:26.437Z,1002.69
2023-07-20T14:15:26.461Z,1002.7
2023-07-20T14:18:26.464Z,1002.71
2023-07-20T14:21:26.414Z,1002.73
2023-07-20T14:24:26.442Z,1002.69
2023-07-20T14:27:26.412Z,1002.66
2023-07-20T14:30:26.422Z,1002.61
2023-07-20T14:33:26.405Z,1002.57
2023-07-20T14:36:26.930Z,1002.6
2023-07-20T14:39:26.434Z,1002.58
2023-07-20T14:42:26.665Z,1002.6
2023-07-20T14:45:26.398Z,1002.56
2023-07-20T14:48:26.494Z,1002.57
2023-07-20T14:51:37.454Z,1002.53
2023-07-20T14:54:26.404Z,1002.5
2023-07-20T14:57:26.401Z,1002.49
2023-07-20T15:00:26.410Z,1002.46
2023-07-20T15:03:26.419Z,1002.45
2023-07-20T15:06:26.636Z,1002.43
2023-07-20T15:09:26.466Z,1002.44
2023-07-20T15:12:26.493Z,1002.43
2023-07-20T15:15:26.461Z,1002.4
2023-07-20T15:18:37.873Z,1002.38
2023-07-20T15:21:26.718Z,1002.34
2023-07-20T15:24:26.732Z,1002.29
2023-07-20T15:27:26.553Z,1002.3
2023-07-20T15:33:27.391Z,1002.23
2023-07-20T15:36:27.084Z,1002.25
2023-07-20T15:39:26.466Z,1002.25
2023-07-20T15:42:37.831Z,1002.22
2023-07-20T15:45:26.506Z,1002.21
2023-07-20T15:48:26.500Z,1002.22
2023-07-20T15:51:26.781Z,1002.21
2023-07-20T15:54:26.426Z,1002.2
2023-07-20T15:57:26.375Z,1002.18
2023-07-20T16:00:26.398Z,1002.15
2023-07-20T16:03:26.403Z,1002.09
2023-07-20T16:06:26.386Z,1002.08
2023-07-20T16:09:26.387Z,1002.09
2023-07-20T16:12:26.420Z,1001.97
2023-07-20T16:18:26.401Z,1001.93
2023-07-20T16:21:26.635Z,1001.93
2023-07-20T16:24:26.388Z,1001.93
2023-07-20T16:27:26.389Z,1001.94
2023-07-20T16:30:26.379Z,1001.92
2023-07-20T16:33:26.528Z,1001.89
2023-07-20T16:36:26.376Z,1001.88
2023-07-20T16:39:27.917Z,1001.82
2023-07-20T16:45:26.379Z,1001.8
2023-07-20T16:48:26.422Z,1001.76
2023-07-20T16:51:26.609Z,1001.76
2023-07-20T16:54:26.371Z,1001.75
2023-07-20T16:57:26.380Z,1001.77
2023-07-20T17:00:26.364Z,1001.77
2023-07-20T17:03:26.432Z,1001.77
2023-07-20T17:06:26.354Z,1001.77
2023-07-20T17:09:26.365Z,1001.77
2023-07-20T17:12:26.378Z,1001.77
2023-07-20T17:15:26.364Z,1001.82
2023-07-20T17:18:26.361Z,1001.79
2023-07-20T17:21:26.612Z,1001.79
2023-07-20T17:27:26.493Z,1001.81
2023-07-20T17:30:26.366Z,1001.81
2023-07-20T17:33:26.377Z,1001.8
2023-07-20T17:40:36.626Z,1001.75
2023-07-20T17:45:26.359Z,1001.74
2023-07-20T17:48:26.477Z,1001.74
2023-07-20T17:51:26.644Z,1001.72
2023-07-20T17:54:26.347Z,1001.74
2023-07-20T17:57:26.349Z,1001.7
2023-07-20T18:03:26.383Z,1001.68
2023-07-20T18:06:26.351Z,1001.64
2023-07-20T18:09:26.347Z,1001.62
2023-07-20T18:12:26.348Z,1001.63
2023-07-20T18:15:26.340Z,1001.63
2023-07-20T18:18:26.332Z,1001.62
2023-07-20T18:21:26.547Z,1001.73
2023-07-20T18:24:26.361Z,1001.66
2023-07-20T18:27:26.327Z,1001.66
2023-07-20T18:30:26.355Z,1001.66
2023-07-20T18:33:26.321Z,1001.67
2023-07-20T18:36:26.329Z,1001.69
2023-07-20T18:39:26.325Z,1001.7
2023-07-20T18:42:26.330Z,1001.71
2023-07-20T18:45:27.542Z,1001.65
2023-07-20T18:48:26.323Z,1001.66
2023-07-20T18:51:26.459Z,1001.67
2023-07-20T18:54:26.318Z,1001.66
2023-07-20T18:57:26.328Z,1001.72
2023-07-20T19:00:26.336Z,1001.75
2023-07-20T19:03:26.433Z,1001.76
2023-07-20T19:06:26.323Z,1001.75
2023-07-20T19:09:26.306Z,1001.77
2023-07-20T19:12:26.304Z,1001.79
2023-07-20T19:15:26.318Z,1001.79
2023-07-20T19:18:26.318Z,1001.81
2023-07-20T19:21:26.313Z,1001.86
2023-07-20T19:24:26.395Z,1001.86
2023-07-20T19:27:28.541Z,1001.86
2023-07-20T19:30:26.309Z,1001.87
2023-07-20T19:33:26.318Z,1001.91
2023-07-20T19:36:26.661Z,1001.93
2023-07-20T19:39:26.303Z,1001.95
2023-07-20T19:42:26.310Z,1001.96
2023-07-20T19:45:26.325Z,1001.99
2023-07-20T19:48:26.333Z,1002
2023-07-20T19:51:26.309Z,1002.02
2023-07-20T20:06:26.595Z,1002.07
2023-07-20T20:09:26.313Z,1002.05
2023-07-20T20:12:26.313Z,1002.03
2023-07-20T20:15:26.303Z,1002
2023-07-20T20:18:26.304Z,1002.03
2023-07-20T20:21:26.316Z,1001.96
2023-07-20T20:24:26.308Z,1001.95
2023-07-20T20:27:26.286Z,1001.97
2023-07-20T20:30:26.286Z,1001.93
2023-07-20T20:33:26.634Z,1001.94
2023-07-20T20:36:26.646Z,1001.91
2023-07-20T20:39:26.462Z,1001.95
2023-07-20T20:42:26.298Z,1001.91
2023-07-20T20:45:26.282Z,1001.91
2023-07-20T20:48:26.286Z,1001.84
2023-07-20T20:51:26.333Z,1001.85
2023-07-20T20:54:26.296Z,1001.84
2023-07-20T20:57:26.282Z,1001.84
2023-07-20T21:00:26.341Z,1001.81
2023-07-20T21:03:26.281Z,1001.81
2023-07-20T21:06:26.502Z,1001.79
2023-07-20T21:09:26.297Z,1001.81
2023-07-20T21:12:26.279Z,1001.78
2023-07-20T21:15:26.280Z,1001.76
2023-07-20T21:18:26.347Z,1001.74
2023-07-20T21:21:26.290Z,1001.75
2023-07-20T21:24:26.351Z,1001.76
2023-07-20T21:27:26.285Z,1001.75
2023-07-20T21:30:26.322Z,1001.74
2023-07-20T21:33:26.274Z,1001.78
2023-07-20T21:36:26.348Z,1001.8
2023-07-20T21:39:26.288Z,1001.79
2023-07-20T21:42:26.279Z,1001.82
2023-07-20T21:45:26.273Z,1001.8
2023-07-20T21:48:26.268Z,1001.77
2023-07-20T21:51:26.268Z,1001.73
2023-07-20T21:54:26.276Z,1001.69
2023-07-20T21:57:26.279Z,1001.63
2023-07-20T22:00:26.277Z,1001.67
2023-07-20T22:03:26.521Z,1001.65
2023-07-20T22:06:26.407Z,1001.67
2023-07-20T22:09:26.271Z,1001.67
2023-07-20T22:12:26.286Z,1001.64
2023-07-20T22:15:26.289Z,1001.67
2023-07-20T22:18:35.930Z,1001.64
2023-07-20T22:21:26.257Z,1001.67
2023-07-20T22:24:26.286Z,1001.7
2023-07-20T22:27:26.268Z,1001.67
2023-07-20T22:30:26.258Z,1001.66
2023-07-20T22:33:26.249Z,1001.63
2023-07-20T22:36:26.621Z,1001.67
2023-07-20T22:39:26.252Z,1001.61
2023-07-20T22:42:26.290Z,1001.65
2023-07-20T22:45:26.277Z,1001.62
2023-07-20T22:48:26.260Z,1001.59
2023-07-20T22:51:26.258Z,1001.57
2023-07-20T22:54:26.266Z,1001.53
2023-07-20T22:57:26.257Z,1001.52
2023-07-20T23:00:26.265Z,1001.57
2023-07-20T23:03:26.375Z,1001.57
2023-07-20T23:06:26.648Z,1001.49
2023-07-20T23:09:26.252Z,1001.51
2023-07-20T23:12:26.258Z,1001.46
2023-07-20T23:15:26.282Z,1001.42
2023-07-20T23:18:26.298Z,1001.42
2023-07-20T23:21:26.250Z,1001.36
2023-07-20T23:24:26.268Z,1001.36
2023-07-20T23:27:26.244Z,1001.34
2023-07-20T23:30:26.247Z,1001.25
2023-07-20T23:33:26.260Z,1001.35
2023-07-20T23:36:26.423Z,1001.35
2023-07-20T23:39:26.251Z,1001.36
2023-07-20T23:42:26.247Z,1001.4
2023-07-20T23:45:26.243Z,1001.42
2023-07-20T23:48:26.243Z,1001.41
2023-07-20T23:51:26.248Z,1001.31
2023-07-20T23:54:26.228Z,1001.31
2023-07-20T23:57:26.239Z,1001.28
